• Join FlightAware (Why Join?)
  • Login
  • US Flag 
07:06AM EDT


 

Airport Tracker/Info


-or-


 

Live Flight TrackerFlight Track Log ✈ ASQ5718 ✈ 03-Jul-2013 ✈ KBTV - KIAD

Flight Track Log - Related Links

Times and Time Zones

All times are in EDT time to prevent confusion due to time zone crossing. See the ASQ5718 flight status page for this flight to view local times or setup timezone preferences in your user account.

Time Position Orientation Groundspeed Altitude Reporting Facility
EDT Latitude Longitude Course Direction KTS MPH feet Rate Location/Type
07:19PM 44.3072 -73.1131 195° South 266 306 6,500  Level Boston Center
07:20PM 44.2403 -73.1500 202° Southwest 273 314 9,400 2,340 Climbing Boston Center
07:21PM 44.1650 -73.1867 199° South 282 325 11,200 2,100 Climbing Boston Center
07:22PM 43.9330 -73.3535 196° South  Level FlightAware Approximate
07:22PM 44.0858 -73.2206 197° South 295 339 13,700  Level Boston Center
07:23PM 43.8439 -73.3874 195° South  Level FlightAware Approximate
07:23PM 44.0106 -73.2542 198° South 295 339 15,700  Level Boston Center
07:24PM 43.7547 -73.4204 195° South  Level FlightAware Approximate
07:24PM 43.9311 -73.2875 197° South 295 339 17,200  Level Boston Center
07:25PM 43.8642 -73.3211 200° South 310 357 18,200 1,320 Climbing Boston Center
07:26PM 43.7533 -73.3686 197° South 321 369 19,900 1,140 Climbing Boston Center
07:27PM 43.6717 -73.4044 198° South 331 381 20,500 660 Climbing Boston Center
07:28PM 43.5778 -73.4431 197° South 343 395 21,400 780 Climbing Boston Center
07:29PM 43.4625 -73.4956 198° South 357 411 22,300 840 Climbing Boston Center
07:30PM 43.3642 -73.5339 196° South 368 423 23,100 780 Climbing Boston Center
07:31PM 43.2639 -73.5778 198° South 368 423 23,900 840 Climbing Boston Center
07:32PM 43.1653 -73.6214 198° South 368 423 24,800 840 Climbing Boston Center
07:33PM 43.0586 -73.6706 199° South 373 429 25,600 600 Climbing Boston Center
07:34PM 42.9581 -73.7139 198° South 373 429 26,000 180 Climbing Boston Center
07:35PM 42.8617 -73.7544 197° South 373 429 26,000  Level Boston Center
07:36PM 42.7592 -73.8003 198° South 379 436 26,000  Level Boston Center
07:37PM 42.6564 -73.8461 198° South 384 442 26,000  Level Boston Center
07:38PM 42.5725 -73.8864 199° South 378 435 26,000  Level Boston Center
07:39PM 42.4664 -73.8811 178° South 373 429 26,000  Level Boston Center
07:40PM 42.3606 -73.8336 162° South 378 435 26,000  Level Boston Center
07:41PM 42.2300 -73.7803 163° South 397 457 26,000  Level Boston Center
07:42PM 42.1261 -73.7361 162° South 397 457 26,000  Level Boston Center
07:43PM 42.0178 -73.7450 183° South 391 450 26,000  Level Boston Center
07:44PM 41.9092 -73.7511 182° South 386 444 26,000  Level Boston Center
07:45PM 41.8028 -73.7603 184° South 386 444 26,000  Level Boston Center
07:46PM 41.6922 -73.7800 188° South 386 444 26,000  Level Boston Center
07:47PM 41.6781 -73.9050 261° West 309 356 26,000  Level Boston Center
07:50PM 41.6728 -74.1731 269° West 309 356 26,000  Level New York Center
07:51PM 41.5967 -74.2161 203° Southwest 314 361 26,000  Level New York Center
07:52PM 41.4928 -74.2719 202° Southwest 344 396 26,000  Level New York Center
07:53PM 41.3956 -74.3247 202° Southwest 364 419 26,000  Level New York Center
07:54PM 41.2856 -74.3797 201° Southwest 386 444 26,000  Level New York Center
07:55PM 41.1881 -74.4350 203° Southwest 386 444 26,000  Level New York Center
07:56PM 41.0928 -74.4878 203° Southwest 386 444 26,000  Level New York Center
07:57PM 40.9953 -74.5375 201° Southwest 381 438 26,000  Level New York Center
07:58PM 40.9017 -74.6008 207° Southwest 381 438 26,000  Level New York Center
07:59PM 40.8600 -74.7275 247° West 361 415 26,000  Level New York Center
08:00PM 40.8267 -74.8461 250° West 370 426 26,000  Level New York Center
08:01PM 40.7889 -74.9756 249° West 376 433 26,000  Level New York Center
08:02PM 40.7486 -75.1044 248° West 381 438 26,000  Level New York Center
08:03PM 40.7064 -75.2358 247° West 391 450 26,000 -240 Level New York Center
08:04PM 40.6639 -75.3672 247° West 391 450 25,600 -840 Descending New York Center
08:05PM 40.6167 -75.5061 246° West 402 463 24,400 -1,260 Descending New York Center
08:06PM 40.5858 -75.6517 254° West 412 474 23,200 -1,260 Descending New York Center
08:07PM 40.5528 -75.7942 253° West 412 474 22,000 -1,200 Descending New York Center
08:08PM 40.5192 -75.9419 253° West 417 480 20,800 -1,020 Descending New York Center
08:09PM 40.4736 -76.0775 246° West 417 480 20,000 -420 Descending New York Center
08:10PM 40.4017 -76.1892 230° Southwest 403 464 20,000  Level New York Center
08:11PM 40.3192 -76.3053 227° Southwest 403 464 20,000  Level New York Center
08:12PM 40.2436 -76.4081 226° Southwest 408 470 20,000  Level New York Center
08:13PM 40.1636 -76.5075 224° Southwest 403 464 20,000 -600 Level New York Center
08:14PM 40.0944 -76.6022 226° Southwest 403 464 18,800 -1,140 Descending New York Center
08:15PM 39.9833 -76.7667 229° Southwest 394 453 17,200 -1,200 Descending Potomac TRACON
08:16PM 39.9000 -76.8500 218° Southwest 373 429 15,900 -1,380 Descending Potomac TRACON
08:17PM 39.8333 -76.9333 224° Southwest 344 396 14,500 -1,440 Descending Potomac TRACON
08:18PM 39.7833 -77.0333 237° Southwest 324 373 13,100 -1,440 Descending Potomac TRACON
08:19PM 39.7333 -77.1167 232° Southwest 322 371 11,700 -1,440 Descending Potomac TRACON
08:20PM 39.6833 -77.2167 237° Southwest 319 367 10,300 -840 Descending Potomac TRACON
08:21PM 39.6333 -77.3167 237° Southwest 293 337 10,100 -120 Descending Potomac TRACON
08:22PM 39.5667 -77.3667 210° Southwest 264 304 10,100 -600 Level Potomac TRACON
08:23PM 39.5000 -77.4167 210° Southwest 269 310 9,000 -1,260 Descending Potomac TRACON
08:24PM 39.4333 -77.4500 201° Southwest 260 299 7,600 -1,080 Descending Potomac TRACON
08:25PM 39.3667 -77.4500 180° South 257 296 6,900 -720 Descending Potomac TRACON
08:26PM 39.3000 -77.4500 180° South 248 285 6,100 -780 Descending Potomac TRACON
08:27PM 39.2333 -77.4500 180° South 235 270 5,300 -1,020 Descending Potomac TRACON
08:28PM 39.1667 -77.4500 180° South 208 239 4,100 -1,140 Descending Potomac TRACON
08:29PM 39.1167 -77.4500 180° South 173 199 3,100 -1,020 Descending Potomac TRACON